Duncan, AZ

05:11 PM MST on Abril 26, 2015 (GMT -0700)
Hideaway Observatory | | Change Station
CLOSE
Current Station
Personal Weather Stations
Location: Duncan, AZ
Elevation: 3814 ft
Nearby Weather Stations

Elev 3814 ft 32.76 °N, 109.07 °W | Updated 24 seconds ago

Mostly Cloudy
Mostly Cloudy
57.2 °F
Feels Like 57.2 °F
N
5.4
Hangin Variable Hangin from NW
Gusts 11.0 mph

Ngayon
High -- | Low -- °F
--% Chance of Precip.
Yesterday
High -- | Low -- °F
Precip. -- sa
5:34 AM 6:54 PM
Unang Quarter, 60% visible
Pwersa 29.73 sa
Paningin 10.0 milya
Mga Ulap Few 4600 ft
Hamog 42 °F
Humidito 57%
Rainfall 0.23 sa
Snow Depth Not available.
UV 2 out of 12
Pollen 5.80 out of 12
Air Quality Not available.
Flu Activity Local Activity
METAR KSAD 262351Z AUTO 30014KT 10SM FEW046 17/06 A2980 RMK AO2 PK WND 30027/2316 RAE2259 SLP068 P0000 60000 T01720056 10178 20106 55005

More Conditions Fewer Conditions

Pwersa 29.73 sa
Paningin 10.0 milya
Mga Ulap Few 4600 ft
Hamog 42 °F
Humidito 57%
Rainfall 0.23 sa
Snow Depth Not available.
UV 2 out of 12
Pollen 5.80 out of 12
Air Quality Not available.
Flu Activity Local Activity
METAR KSAD 262351Z AUTO 30014KT 10SM FEW046 17/06 A2980 RMK AO2 PK WND 30027/2316 RAE2259 SLP068 P0000 60000 T01720056 10178 20106 55005

More Conditions Fewer Conditions

The full scope of the disaster following a powerful 7.8-magnitude earthquake in Nepal may not come into view for days, but global charities are already sending emergency aid. Click to see how you can help.

10-Day Weather Forecast

Almanac

Astronomiya

Apr. 26, 2015 Rise Set
Actual Time
Civil Twilight
Nautical Twilight
Astronomical Twilight
Buwan
Length Of Visible Light
Haba ng Araw
Tomorrow will be .
, % of the Moon is Illuminated

Today's Extremes

State Highs State Lows

Community

WunderPhotos

Upload Photos

1,817,171 photos uploaded!

WunderBlogs® & News

Nearby

Air Quality

  Air Quality AQ Index Pollutant
Not available.

Snow Depth

Station Depth Elevation

Earthquake Activity

Siyudad Distance Mag. Time & Date
Minimum magnitude displayed is 2.5.

Coastal Water Temperatures

lugar Temparatura

Stations

Nearby Weather Stations

Station Location Temp Windchill Hamog Humidito Hangin Precip. Elev Bago Type